sensor_id;sensor_type;location;lat;lon;timestamp;P1;durP1;ratioP1;P2;durP2;ratioP2
13743;SDS011;6943;52.368;9.966;2023-04-24T00:00:54;3.27;;;1.57;;
13743;SDS011;6943;52.368;9.966;2023-04-24T00:03:21;1.60;;;1.23;;
13743;SDS011;6943;52.368;9.966;2023-04-24T00:05:47;2.23;;;1.77;;
13743;SDS011;6943;52.368;9.966;2023-04-24T00:08:13;1.50;;;1.20;;
13743;SDS011;6943;52.368;9.966;2023-04-24T00:10:38;1.63;;;1.23;;
13743;SDS011;6943;52.368;9.966;2023-04-24T00:13:04;1.50;;;1.27;;
13743;SDS011;6943;52.368;9.966;2023-04-24T00:15:29;1.20;;;1.10;;
13743;SDS011;6943;52.368;9.966;2023-04-24T00:17:56;1.43;;;1.33;;
13743;SDS011;6943;52.368;9.966;2023-04-24T00:20:21;1.90;;;1.60;;
13743;SDS011;6943;52.368;9.966;2023-04-24T00:22:47;2.37;;;1.20;;
13743;SDS011;6943;52.368;9.966;2023-04-24T00:25:12;2.63;;;1.10;;
13743;SDS011;6943;52.368;9.966;2023-04-24T00:27:38;1.30;;;1.20;;
13743;SDS011;6943;52.368;9.966;2023-04-24T00:30:04;1.53;;;1.43;;
13743;SDS011;6943;52.368;9.966;2023-04-24T00:32:30;3.53;;;1.50;;
13743;SDS011;6943;52.368;9.966;2023-04-24T00:34:55;1.40;;;1.30;;
13743;SDS011;6943;52.368;9.966;2023-04-24T00:37:21;1.23;;;1.10;;
13743;SDS011;6943;52.368;9.966;2023-04-24T00:39:46;1.50;;;1.17;;
13743;SDS011;6943;52.368;9.966;2023-04-24T00:42:12;1.27;;;1.17;;
13743;SDS011;6943;52.368;9.966;2023-04-24T00:44:37;1.27;;;1.17;;
13743;SDS011;6943;52.368;9.966;2023-04-24T00:47:03;1.53;;;1.13;;
13743;SDS011;6943;52.368;9.966;2023-04-24T00:49:29;1.17;;;1.07;;
13743;SDS011;6943;52.368;9.966;2023-04-24T00:51:55;1.93;;;1.70;;
13743;SDS011;6943;52.368;9.966;2023-04-24T00:54:21;1.30;;;1.10;;
13743;SDS011;6943;52.368;9.966;2023-04-24T00:56:47;2.00;;;1.40;;
13743;SDS011;6943;52.368;9.966;2023-04-24T00:59:13;1.30;;;1.20;;
13743;SDS011;6943;52.368;9.966;2023-04-24T01:01:42;3.10;;;1.63;;
13743;SDS011;6943;52.368;9.966;2023-04-24T01:04:08;1.70;;;1.60;;
13743;SDS011;6943;52.368;9.966;2023-04-24T01:06:36;1.40;;;1.30;;
13743;SDS011;6943;52.368;9.966;2023-04-24T01:09:04;1.63;;;1.50;;
13743;SDS011;6943;52.368;9.966;2023-04-24T01:11:30;2.47;;;1.70;;
13743;SDS011;6943;52.368;9.966;2023-04-24T01:13:56;2.20;;;1.53;;
13743;SDS011;6943;52.368;9.966;2023-04-24T01:16:22;2.37;;;1.73;;
13743;SDS011;6943;52.368;9.966;2023-04-24T01:18:47;1.30;;;1.20;;
13743;SDS011;6943;52.368;9.966;2023-04-24T01:21:14;2.70;;;1.57;;
13743;SDS011;6943;52.368;9.966;2023-04-24T01:23:43;2.10;;;1.40;;
13743;SDS011;6943;52.368;9.966;2023-04-24T01:26:10;1.57;;;1.33;;
13743;SDS011;6943;52.368;9.966;2023-04-24T01:28:35;2.13;;;1.50;;
13743;SDS011;6943;52.368;9.966;2023-04-24T01:31:02;1.90;;;1.50;;
13743;SDS011;6943;52.368;9.966;2023-04-24T01:33:27;1.40;;;1.30;;
13743;SDS011;6943;52.368;9.966;2023-04-24T01:35:53;1.33;;;1.23;;
13743;SDS011;6943;52.368;9.966;2023-04-24T01:38:19;1.53;;;1.30;;
13743;SDS011;6943;52.368;9.966;2023-04-24T01:40:45;1.63;;;1.27;;
13743;SDS011;6943;52.368;9.966;2023-04-24T01:43:11;1.70;;;1.60;;
13743;SDS011;6943;52.368;9.966;2023-04-24T01:45:37;2.00;;;1.40;;
13743;SDS011;6943;52.368;9.966;2023-04-24T01:48:03;2.43;;;1.20;;
13743;SDS011;6943;52.368;9.966;2023-04-24T01:50:28;2.80;;;1.23;;
13743;SDS011;6943;52.368;9.966;2023-04-24T01:52:54;1.50;;;1.20;;
13743;SDS011;6943;52.368;9.966;2023-04-24T01:55:20;1.53;;;1.30;;
13743;SDS011;6943;52.368;9.966;2023-04-24T01:57:45;2.50;;;2.30;;
13743;SDS011;6943;52.368;9.966;2023-04-24T02:00:11;1.83;;;1.57;;
13743;SDS011;6943;52.368;9.966;2023-04-24T02:02:38;3.00;;;2.40;;
13743;SDS011;6943;52.368;9.966;2023-04-24T02:05:06;2.90;;;2.70;;
13743;SDS011;6943;52.368;9.966;2023-04-24T02:07:32;3.10;;;2.50;;
13743;SDS011;6943;52.368;9.966;2023-04-24T02:09:58;3.00;;;2.57;;
13743;SDS011;6943;52.368;9.966;2023-04-24T02:12:23;2.17;;;1.60;;
13743;SDS011;6943;52.368;9.966;2023-04-24T02:14:49;1.43;;;1.33;;
13743;SDS011;6943;52.368;9.966;2023-04-24T02:17:15;1.80;;;1.60;;
13743;SDS011;6943;52.368;9.966;2023-04-24T02:19:41;1.90;;;1.50;;
13743;SDS011;6943;52.368;9.966;2023-04-24T02:22:06;2.17;;;1.77;;
13743;SDS011;6943;52.368;9.966;2023-04-24T02:24:32;2.40;;;1.80;;
13743;SDS011;6943;52.368;9.966;2023-04-24T02:26:57;3.60;;;1.57;;
13743;SDS011;6943;52.368;9.966;2023-04-24T02:29:23;4.33;;;2.50;;
13743;SDS011;6943;52.368;9.966;2023-04-24T02:31:48;2.30;;;2.10;;
13743;SDS011;6943;52.368;9.966;2023-04-24T02:34:14;3.00;;;2.00;;
13743;SDS011;6943;52.368;9.966;2023-04-24T02:36:39;2.60;;;2.10;;
13743;SDS011;6943;52.368;9.966;2023-04-24T02:39:05;1.80;;;1.70;;
13743;SDS011;6943;52.368;9.966;2023-04-24T02:41:30;3.50;;;1.67;;
13743;SDS011;6943;52.368;9.966;2023-04-24T02:44:00;2.83;;;1.93;;
13743;SDS011;6943;52.368;9.966;2023-04-24T02:46:25;2.97;;;1.80;;
13743;SDS011;6943;52.368;9.966;2023-04-24T02:48:51;2.60;;;2.30;;
13743;SDS011;6943;52.368;9.966;2023-04-24T02:51:17;2.80;;;1.80;;
13743;SDS011;6943;52.368;9.966;2023-04-24T02:53:42;3.17;;;1.70;;
13743;SDS011;6943;52.368;9.966;2023-04-24T02:56:08;4.90;;;1.90;;
13743;SDS011;6943;52.368;9.966;2023-04-24T02:58:33;1.70;;;1.57;;
13743;SDS011;6943;52.368;9.966;2023-04-24T03:00:59;4.30;;;2.03;;
13743;SDS011;6943;52.368;9.966;2023-04-24T03:03:25;3.23;;;1.83;;
13743;SDS011;6943;52.368;9.966;2023-04-24T03:05:50;2.63;;;2.03;;
13743;SDS011;6943;52.368;9.966;2023-04-24T03:08:16;3.20;;;2.10;;
13743;SDS011;6943;52.368;9.966;2023-04-24T03:10:42;1.90;;;1.70;;
13743;SDS011;6943;52.368;9.966;2023-04-24T03:13:08;2.87;;;1.87;;
13743;SDS011;6943;52.368;9.966;2023-04-24T03:15:33;2.10;;;1.90;;
13743;SDS011;6943;52.368;9.966;2023-04-24T03:17:59;3.30;;;1.90;;
13743;SDS011;6943;52.368;9.966;2023-04-24T03:20:25;3.70;;;1.80;;
13743;SDS011;6943;52.368;9.966;2023-04-24T03:22:51;2.13;;;1.73;;
13743;SDS011;6943;52.368;9.966;2023-04-24T03:25:16;3.37;;;2.00;;
13743;SDS011;6943;52.368;9.966;2023-04-24T03:27:42;1.60;;;1.50;;
13743;SDS011;6943;52.368;9.966;2023-04-24T03:30:07;2.30;;;1.70;;
13743;SDS011;6943;52.368;9.966;2023-04-24T03:32:33;2.67;;;1.70;;
13743;SDS011;6943;52.368;9.966;2023-04-24T03:34:59;2.70;;;1.53;;
13743;SDS011;6943;52.368;9.966;2023-04-24T03:37:25;3.70;;;2.00;;
13743;SDS011;6943;52.368;9.966;2023-04-24T03:39:51;3.63;;;1.90;;
13743;SDS011;6943;52.368;9.966;2023-04-24T03:42:17;2.03;;;1.83;;
13743;SDS011;6943;52.368;9.966;2023-04-24T03:44:42;1.50;;;1.40;;
13743;SDS011;6943;52.368;9.966;2023-04-24T03:47:08;2.00;;;1.50;;
13743;SDS011;6943;52.368;9.966;2023-04-24T03:49:33;4.53;;;1.70;;
13743;SDS011;6943;52.368;9.966;2023-04-24T03:51:59;2.73;;;1.80;;
13743;SDS011;6943;52.368;9.966;2023-04-24T03:54:24;1.53;;;1.43;;
13743;SDS011;6943;52.368;9.966;2023-04-24T03:56:50;2.60;;;1.20;;
13743;SDS011;6943;52.368;9.966;2023-04-24T03:59:15;2.70;;;1.43;;
13743;SDS011;6943;52.368;9.966;2023-04-24T04:01:41;1.60;;;1.50;;
13743;SDS011;6943;52.368;9.966;2023-04-24T04:04:06;1.77;;;1.50;;
13743;SDS011;6943;52.368;9.966;2023-04-24T04:06:33;1.40;;;1.30;;
13743;SDS011;6943;52.368;9.966;2023-04-24T04:08:59;1.73;;;1.57;;
13743;SDS011;6943;52.368;9.966;2023-04-24T04:11:25;3.43;;;1.77;;
13743;SDS011;6943;52.368;9.966;2023-04-24T04:13:50;3.20;;;1.90;;
13743;SDS011;6943;52.368;9.966;2023-04-24T04:16:16;1.60;;;1.40;;
13743;SDS011;6943;52.368;9.966;2023-04-24T04:18:42;3.00;;;1.63;;
13743;SDS011;6943;52.368;9.966;2023-04-24T04:21:08;1.60;;;1.50;;
13743;SDS011;6943;52.368;9.966;2023-04-24T04:23:33;1.50;;;1.40;;
13743;SDS011;6943;52.368;9.966;2023-04-24T04:25:59;1.43;;;1.33;;
13743;SDS011;6943;52.368;9.966;2023-04-24T04:28:24;1.50;;;1.40;;
13743;SDS011;6943;52.368;9.966;2023-04-24T04:30:50;1.60;;;1.30;;
13743;SDS011;6943;52.368;9.966;2023-04-24T04:33:19;2.90;;;1.60;;
13743;SDS011;6943;52.368;9.966;2023-04-24T04:35:45;2.33;;;1.80;;
13743;SDS011;6943;52.368;9.966;2023-04-24T04:38:13;2.87;;;1.43;;
13743;SDS011;6943;52.368;9.966;2023-04-24T04:40:40;1.33;;;1.10;;
13743;SDS011;6943;52.368;9.966;2023-04-24T04:43:06;1.20;;;1.10;;
13743;SDS011;6943;52.368;9.966;2023-04-24T04:45:31;1.83;;;1.17;;
13743;SDS011;6943;52.368;9.966;2023-04-24T04:47:58;1.37;;;1.10;;
13743;SDS011;6943;52.368;9.966;2023-04-24T04:50:25;2.17;;;1.40;;
13743;SDS011;6943;52.368;9.966;2023-04-24T04:52:51;1.77;;;1.10;;
13743;SDS011;6943;52.368;9.966;2023-04-24T04:55:17;1.40;;;1.20;;
13743;SDS011;6943;52.368;9.966;2023-04-24T04:57:44;1.47;;;1.33;;
13743;SDS011;6943;52.368;9.966;2023-04-24T05:00:10;2.90;;;1.30;;
13743;SDS011;6943;52.368;9.966;2023-04-24T05:02:36;2.57;;;1.10;;
13743;SDS011;6943;52.368;9.966;2023-04-24T05:05:02;1.67;;;1.00;;
13743;SDS011;6943;52.368;9.966;2023-04-24T05:07:28;1.20;;;1.10;;
13743;SDS011;6943;52.368;9.966;2023-04-24T05:09:53;2.47;;;1.73;;
13743;SDS011;6943;52.368;9.966;2023-04-24T05:12:19;3.03;;;1.00;;
13743;SDS011;6943;52.368;9.966;2023-04-24T05:14:44;1.33;;;1.00;;
13743;SDS011;6943;52.368;9.966;2023-04-24T05:17:10;1.63;;;1.10;;
13743;SDS011;6943;52.368;9.966;2023-04-24T05:19:36;3.63;;;1.27;;
13743;SDS011;6943;52.368;9.966;2023-04-24T05:22:03;1.87;;;1.10;;
13743;SDS011;6943;52.368;9.966;2023-04-24T05:24:31;1.63;;;1.00;;
13743;SDS011;6943;52.368;9.966;2023-04-24T05:27:00;1.73;;;1.03;;
13743;SDS011;6943;52.368;9.966;2023-04-24T05:29:27;1.37;;;1.17;;
13743;SDS011;6943;52.368;9.966;2023-04-24T05:31:55;1.83;;;0.90;;
13743;SDS011;6943;52.368;9.966;2023-04-24T05:34:21;1.33;;;0.70;;
13743;SDS011;6943;52.368;9.966;2023-04-24T05:36:47;1.60;;;0.90;;
13743;SDS011;6943;52.368;9.966;2023-04-24T05:39:12;1.27;;;1.00;;
13743;SDS011;6943;52.368;9.966;2023-04-24T05:41:38;1.00;;;0.80;;
13743;SDS011;6943;52.368;9.966;2023-04-24T05:44:04;1.67;;;0.80;;
13743;SDS011;6943;52.368;9.966;2023-04-24T05:46:29;1.23;;;0.90;;
13743;SDS011;6943;52.368;9.966;2023-04-24T05:48:55;0.83;;;0.77;;
13743;SDS011;6943;52.368;9.966;2023-04-24T05:51:20;1.00;;;0.80;;
13743;SDS011;6943;52.368;9.966;2023-04-24T05:53:46;1.00;;;0.90;;
13743;SDS011;6943;52.368;9.966;2023-04-24T05:56:11;1.53;;;0.90;;
13743;SDS011;6943;52.368;9.966;2023-04-24T05:58:37;1.00;;;1.00;;
13743;SDS011;6943;52.368;9.966;2023-04-24T06:01:02;0.90;;;0.70;;
13743;SDS011;6943;52.368;9.966;2023-04-24T06:03:28;1.20;;;0.80;;
13743;SDS011;6943;52.368;9.966;2023-04-24T06:05:54;1.03;;;0.90;;
13743;SDS011;6943;52.368;9.966;2023-04-24T06:08:19;3.03;;;1.13;;
13743;SDS011;6943;52.368;9.966;2023-04-24T06:10:45;1.10;;;1.00;;
13743;SDS011;6943;52.368;9.966;2023-04-24T06:13:10;1.80;;;0.80;;
13743;SDS011;6943;52.368;9.966;2023-04-24T06:15:36;1.37;;;1.27;;
13743;SDS011;6943;52.368;9.966;2023-04-24T06:18:02;1.87;;;1.20;;
13743;SDS011;6943;52.368;9.966;2023-04-24T06:20:28;1.33;;;0.90;;
13743;SDS011;6943;52.368;9.966;2023-04-24T06:22:53;2.90;;;1.40;;
13743;SDS011;6943;52.368;9.966;2023-04-24T06:25:19;2.13;;;1.33;;
13743;SDS011;6943;52.368;9.966;2023-04-24T06:27:45;2.03;;;1.20;;
13743;SDS011;6943;52.368;9.966;2023-04-24T06:30:11;2.57;;;1.27;;
13743;SDS011;6943;52.368;9.966;2023-04-24T06:32:37;2.53;;;1.40;;
13743;SDS011;6943;52.368;9.966;2023-04-24T06:35:03;1.73;;;1.10;;
13743;SDS011;6943;52.368;9.966;2023-04-24T06:37:29;1.43;;;1.33;;
13743;SDS011;6943;52.368;9.966;2023-04-24T06:39:54;1.80;;;1.70;;
13743;SDS011;6943;52.368;9.966;2023-04-24T06:42:20;4.80;;;1.57;;
13743;SDS011;6943;52.368;9.966;2023-04-24T06:44:49;1.43;;;1.30;;
13743;SDS011;6943;52.368;9.966;2023-04-24T06:47:15;1.47;;;1.30;;
13743;SDS011;6943;52.368;9.966;2023-04-24T06:49:41;1.70;;;1.60;;
13743;SDS011;6943;52.368;9.966;2023-04-24T06:52:06;2.20;;;1.80;;
13743;SDS011;6943;52.368;9.966;2023-04-24T06:54:32;2.23;;;1.50;;
13743;SDS011;6943;52.368;9.966;2023-04-24T06:56:58;2.47;;;1.50;;
13743;SDS011;6943;52.368;9.966;2023-04-24T06:59:25;1.93;;;1.57;;
13743;SDS011;6943;52.368;9.966;2023-04-24T07:01:51;2.43;;;1.70;;
13743;SDS011;6943;52.368;9.966;2023-04-24T07:04:17;2.00;;;1.80;;
13743;SDS011;6943;52.368;9.966;2023-04-24T07:06:44;3.10;;;1.60;;
13743;SDS011;6943;52.368;9.966;2023-04-24T07:09:11;1.70;;;1.60;;
13743;SDS011;6943;52.368;9.966;2023-04-24T07:11:38;2.20;;;2.00;;
13743;SDS011;6943;52.368;9.966;2023-04-24T07:14:05;2.27;;;1.70;;
13743;SDS011;6943;52.368;9.966;2023-04-24T07:16:31;2.20;;;1.77;;
13743;SDS011;6943;52.368;9.966;2023-04-24T07:18:57;2.37;;;1.90;;
13743;SDS011;6943;52.368;9.966;2023-04-24T07:21:22;3.37;;;1.80;;
13743;SDS011;6943;52.368;9.966;2023-04-24T07:23:47;2.63;;;1.90;;
13743;SDS011;6943;52.368;9.966;2023-04-24T07:26:13;2.90;;;2.53;;
13743;SDS011;6943;52.368;9.966;2023-04-24T07:28:39;2.37;;;2.17;;
13743;SDS011;6943;52.368;9.966;2023-04-24T07:31:05;4.30;;;3.00;;
13743;SDS011;6943;52.368;9.966;2023-04-24T07:33:31;4.37;;;2.60;;
13743;SDS011;6943;52.368;9.966;2023-04-24T07:35:57;3.27;;;2.97;;
13743;SDS011;6943;52.368;9.966;2023-04-24T07:38:23;4.47;;;4.03;;
13743;SDS011;6943;52.368;9.966;2023-04-24T07:40:50;3.83;;;3.53;;
13743;SDS011;6943;52.368;9.966;2023-04-24T07:43:16;3.57;;;3.27;;
13743;SDS011;6943;52.368;9.966;2023-04-24T07:45:42;4.17;;;3.67;;
13743;SDS011;6943;52.368;9.966;2023-04-24T07:48:07;4.47;;;4.07;;
13743;SDS011;6943;52.368;9.966;2023-04-24T07:50:34;4.40;;;4.00;;
13743;SDS011;6943;52.368;9.966;2023-04-24T07:53:00;4.40;;;4.07;;
13743;SDS011;6943;52.368;9.966;2023-04-24T07:55:26;4.40;;;4.00;;
13743;SDS011;6943;52.368;9.966;2023-04-24T07:57:51;4.40;;;3.97;;
13743;SDS011;6943;52.368;9.966;2023-04-24T08:00:17;5.78;;;4.10;;
13743;SDS011;6943;52.368;9.966;2023-04-24T08:02:42;4.32;;;3.92;;
13743;SDS011;6943;52.368;9.966;2023-04-24T08:05:08;4.22;;;3.92;;
13743;SDS011;6943;52.368;9.966;2023-04-24T08:07:33;4.28;;;3.97;;
13743;SDS011;6943;52.368;9.966;2023-04-24T08:10:00;4.97;;;4.50;;
13743;SDS011;6943;52.368;9.966;2023-04-24T08:12:27;4.87;;;4.47;;
13743;SDS011;6943;52.368;9.966;2023-04-24T08:14:54;4.17;;;3.80;;
13743;SDS011;6943;52.368;9.966;2023-04-24T08:17:19;5.10;;;4.60;;
13743;SDS011;6943;52.368;9.966;2023-04-24T08:19:45;5.32;;;4.13;;
13743;SDS011;6943;52.368;9.966;2023-04-24T08:22:13;5.72;;;5.18;;
13743;SDS011;6943;52.368;9.966;2023-04-24T08:24:41;6.25;;;5.68;;
13743;SDS011;6943;52.368;9.966;2023-04-24T08:27:08;4.78;;;4.45;;
13743;SDS011;6943;52.368;9.966;2023-04-24T08:29:35;5.32;;;4.93;;
13743;SDS011;6943;52.368;9.966;2023-04-24T08:32:00;4.67;;;4.20;;
13743;SDS011;6943;52.368;9.966;2023-04-24T08:34:26;4.33;;;3.93;;
13743;SDS011;6943;52.368;9.966;2023-04-24T08:36:51;5.10;;;4.57;;
13743;SDS011;6943;52.368;9.966;2023-04-24T08:39:17;4.67;;;4.10;;
13743;SDS011;6943;52.368;9.966;2023-04-24T08:41:44;5.17;;;4.67;;
13743;SDS011;6943;52.368;9.966;2023-04-24T08:44:10;6.07;;;5.10;;
13743;SDS011;6943;52.368;9.966;2023-04-24T08:46:37;5.50;;;5.00;;
13743;SDS011;6943;52.368;9.966;2023-04-24T08:49:04;5.03;;;4.53;;
13743;SDS011;6943;52.368;9.966;2023-04-24T08:51:30;5.57;;;4.30;;
13743;SDS011;6943;52.368;9.966;2023-04-24T08:53:56;5.00;;;4.13;;
13743;SDS011;6943;52.368;9.966;2023-04-24T08:56:22;5.15;;;4.47;;
13743;SDS011;6943;52.368;9.966;2023-04-24T08:58:50;4.95;;;4.55;;
13743;SDS011;6943;52.368;9.966;2023-04-24T09:01:16;5.05;;;4.57;;
13743;SDS011;6943;52.368;9.966;2023-04-24T09:03:48;5.82;;;5.30;;
13743;SDS011;6943;52.368;9.966;2023-04-24T09:06:14;5.32;;;4.45;;
13743;SDS011;6943;52.368;9.966;2023-04-24T09:08:42;4.65;;;4.28;;
13743;SDS011;6943;52.368;9.966;2023-04-24T09:11:10;5.45;;;4.28;;
13743;SDS011;6943;52.368;9.966;2023-04-24T09:13:36;6.13;;;4.32;;
13743;SDS011;6943;52.368;9.966;2023-04-24T09:16:02;7.05;;;4.55;;
13743;SDS011;6943;52.368;9.966;2023-04-24T09:18:28;8.10;;;5.30;;
13743;SDS011;6943;52.368;9.966;2023-04-24T09:21:03;4.57;;;4.17;;
13743;SDS011;6943;52.368;9.966;2023-04-24T09:23:31;5.07;;;4.30;;
13743;SDS011;6943;52.368;9.966;2023-04-24T09:25:57;4.83;;;4.33;;
13743;SDS011;6943;52.368;9.966;2023-04-24T09:28:32;5.37;;;4.87;;
13743;SDS011;6943;52.368;9.966;2023-04-24T09:33:36;5.73;;;4.50;;
13743;SDS011;6943;52.368;9.966;2023-04-24T09:36:02;5.07;;;4.47;;
13743;SDS011;6943;52.368;9.966;2023-04-24T09:38:32;5.43;;;4.47;;
13743;SDS011;6943;52.368;9.966;2023-04-24T09:40:59;6.50;;;4.73;;
13743;SDS011;6943;52.368;9.966;2023-04-24T09:43:26;4.57;;;4.17;;
13743;SDS011;6943;52.368;9.966;2023-04-24T09:45:52;4.57;;;3.20;;
13743;SDS011;6943;52.368;9.966;2023-04-24T09:48:29;2.87;;;2.57;;
13743;SDS011;6943;52.368;9.966;2023-04-24T09:50:58;2.70;;;2.50;;
13743;SDS011;6943;52.368;9.966;2023-04-24T09:53:25;3.20;;;2.90;;
13743;SDS011;6943;52.368;9.966;2023-04-24T09:55:52;2.90;;;2.60;;
13743;SDS011;6943;52.368;9.966;2023-04-24T09:58:18;3.07;;;2.50;;
13743;SDS011;6943;52.368;9.966;2023-04-24T10:00:49;3.90;;;2.70;;
13743;SDS011;6943;52.368;9.966;2023-04-24T10:03:17;3.00;;;2.70;;
13743;SDS011;6943;52.368;9.966;2023-04-24T10:05:44;3.13;;;2.83;;
13743;SDS011;6943;52.368;9.966;2023-04-24T10:08:11;4.73;;;2.70;;
13743;SDS011;6943;52.368;9.966;2023-04-24T10:10:46;2.77;;;2.57;;
13743;SDS011;6943;52.368;9.966;2023-04-24T10:13:13;5.10;;;3.10;;
13743;SDS011;6943;52.368;9.966;2023-04-24T10:15:40;3.33;;;2.70;;
13743;SDS011;6943;52.368;9.966;2023-04-24T10:18:06;3.47;;;2.60;;
13743;SDS011;6943;52.368;9.966;2023-04-24T10:20:34;5.13;;;2.73;;
13743;SDS011;6943;52.368;9.966;2023-04-24T10:23:01;2.97;;;2.77;;
13743;SDS011;6943;52.368;9.966;2023-04-24T10:25:29;3.00;;;2.70;;
13743;SDS011;6943;52.368;9.966;2023-04-24T10:27:55;2.83;;;2.60;;
13743;SDS011;6943;52.368;9.966;2023-04-24T10:30:24;2.53;;;2.33;;
13743;SDS011;6943;52.368;9.966;2023-04-24T10:32:50;2.53;;;2.17;;
13743;SDS011;6943;52.368;9.966;2023-04-24T10:35:15;2.90;;;2.37;;
13743;SDS011;6943;52.368;9.966;2023-04-24T10:37:44;2.60;;;2.40;;
13743;SDS011;6943;52.368;9.966;2023-04-24T10:40:11;3.03;;;2.37;;
13743;SDS011;6943;52.368;9.966;2023-04-24T10:42:42;3.03;;;2.13;;
13743;SDS011;6943;52.368;9.966;2023-04-24T10:45:15;2.70;;;2.43;;
13743;SDS011;6943;52.368;9.966;2023-04-24T10:47:42;2.13;;;1.97;;
13743;SDS011;6943;52.368;9.966;2023-04-24T10:50:12;2.27;;;2.07;;
13743;SDS011;6943;52.368;9.966;2023-04-24T10:52:44;2.40;;;2.20;;
13743;SDS011;6943;52.368;9.966;2023-04-24T10:55:10;3.50;;;2.00;;
13743;SDS011;6943;52.368;9.966;2023-04-24T10:57:38;2.10;;;1.90;;
13743;SDS011;6943;52.368;9.966;2023-04-24T11:00:37;2.27;;;2.13;;
13743;SDS011;6943;52.368;9.966;2023-04-24T11:02:56;2.93;;;1.93;;
13743;SDS011;6943;52.368;9.966;2023-04-24T11:05:22;2.77;;;2.30;;
13743;SDS011;6943;52.368;9.966;2023-04-24T11:08:16;2.43;;;2.10;;
13743;SDS011;6943;52.368;9.966;2023-04-24T11:10:54;3.07;;;2.03;;
13743;SDS011;6943;52.368;9.966;2023-04-24T11:13:21;2.13;;;1.93;;
13743;SDS011;6943;52.368;9.966;2023-04-24T11:19:06;1.80;;;1.70;;
13743;SDS011;6943;52.368;9.966;2023-04-24T11:22:00;1.77;;;1.53;;
13743;SDS011;6943;52.368;9.966;2023-04-24T11:29:39;2.03;;;1.83;;
13743;SDS011;6943;52.368;9.966;2023-04-24T11:37:38;1.57;;;1.27;;
13743;SDS011;6943;52.368;9.966;2023-04-24T11:40:06;1.80;;;1.60;;
13743;SDS011;6943;52.368;9.966;2023-04-24T11:42:37;2.47;;;1.63;;
13743;SDS011;6943;52.368;9.966;2023-04-24T11:45:11;4.17;;;1.73;;
13743;SDS011;6943;52.368;9.966;2023-04-24T11:47:42;2.53;;;1.80;;
13743;SDS011;6943;52.368;9.966;2023-04-24T11:50:10;2.00;;;1.60;;
13743;SDS011;6943;52.368;9.966;2023-04-24T11:52:37;2.67;;;1.70;;
13743;SDS011;6943;52.368;9.966;2023-04-24T11:55:06;2.27;;;1.50;;
13743;SDS011;6943;52.368;9.966;2023-04-24T11:57:33;1.43;;;1.33;;
13743;SDS011;6943;52.368;9.966;2023-04-24T12:00:02;2.60;;;1.70;;
13743;SDS011;6943;52.368;9.966;2023-04-24T12:02:30;1.50;;;1.40;;
13743;SDS011;6943;52.368;9.966;2023-04-24T12:04:56;1.33;;;1.23;;
13743;SDS011;6943;52.368;9.966;2023-04-24T12:07:22;2.20;;;1.40;;
13743;SDS011;6943;52.368;9.966;2023-04-24T12:09:54;1.27;;;1.17;;
13743;SDS011;6943;52.368;9.966;2023-04-24T12:12:25;1.10;;;1.00;;
13743;SDS011;6943;52.368;9.966;2023-04-24T12:14:52;1.30;;;1.00;;
13743;SDS011;6943;52.368;9.966;2023-04-24T12:17:26;0.93;;;0.93;;
13743;SDS011;6943;52.368;9.966;2023-04-24T12:19:56;1.17;;;1.07;;
13743;SDS011;6943;52.368;9.966;2023-04-24T12:22:23;1.20;;;1.10;;
13743;SDS011;6943;52.368;9.966;2023-04-24T12:24:56;1.53;;;1.20;;
13743;SDS011;6943;52.368;9.966;2023-04-24T12:27:25;1.27;;;1.10;;
13743;SDS011;6943;52.368;9.966;2023-04-24T12:29:55;1.20;;;1.10;;
13743;SDS011;6943;52.368;9.966;2023-04-24T12:32:21;0.80;;;0.80;;
13743;SDS011;6943;52.368;9.966;2023-04-24T12:34:47;1.83;;;0.90;;
13743;SDS011;6943;52.368;9.966;2023-04-24T12:37:15;2.90;;;0.90;;
13743;SDS011;6943;52.368;9.966;2023-04-24T12:39:44;0.60;;;0.60;;
13743;SDS011;6943;52.368;9.966;2023-04-24T12:42:27;0.70;;;0.70;;
13743;SDS011;6943;52.368;9.966;2023-04-24T12:44:58;1.70;;;0.93;;
13743;SDS011;6943;52.368;9.966;2023-04-24T12:47:25;0.80;;;0.80;;
13743;SDS011;6943;52.368;9.966;2023-04-24T12:49:52;2.23;;;1.00;;
13743;SDS011;6943;52.368;9.966;2023-04-24T12:52:18;1.20;;;1.10;;
13743;SDS011;6943;52.368;9.966;2023-04-24T12:54:48;1.03;;;0.93;;
13743;SDS011;6943;52.368;9.966;2023-04-24T12:57:14;1.13;;;0.90;;
13743;SDS011;6943;52.368;9.966;2023-04-24T12:59:40;1.03;;;0.93;;
13743;SDS011;6943;52.368;9.966;2023-04-24T13:02:06;1.33;;;1.23;;
13743;SDS011;6943;52.368;9.966;2023-04-24T13:04:32;2.03;;;0.80;;
13743;SDS011;6943;52.368;9.966;2023-04-24T13:06:57;0.90;;;0.90;;
13743;SDS011;6943;52.368;9.966;2023-04-24T13:09:23;1.57;;;0.80;;
13743;SDS011;6943;52.368;9.966;2023-04-24T13:11:48;1.10;;;0.90;;
13743;SDS011;6943;52.368;9.966;2023-04-24T13:14:15;1.20;;;1.10;;
13743;SDS011;6943;52.368;9.966;2023-04-24T13:16:40;3.63;;;1.10;;
13743;SDS011;6943;52.368;9.966;2023-04-24T13:19:06;1.33;;;1.20;;
13743;SDS011;6943;52.368;9.966;2023-04-24T13:21:31;6.07;;;1.53;;
13743;SDS011;6943;52.368;9.966;2023-04-24T13:23:57;1.00;;;0.90;;
13743;SDS011;6943;52.368;9.966;2023-04-24T13:26:22;1.60;;;1.40;;
13743;SDS011;6943;52.368;9.966;2023-04-24T13:28:48;1.47;;;1.20;;
13743;SDS011;6943;52.368;9.966;2023-04-24T13:31:13;2.50;;;1.30;;
13743;SDS011;6943;52.368;9.966;2023-04-24T13:33:39;1.20;;;1.10;;
13743;SDS011;6943;52.368;9.966;2023-04-24T13:36:05;1.60;;;1.50;;
13743;SDS011;6943;52.368;9.966;2023-04-24T13:38:31;2.37;;;1.40;;
13743;SDS011;6943;52.368;9.966;2023-04-24T13:40:56;1.30;;;1.20;;
13743;SDS011;6943;52.368;9.966;2023-04-24T13:43:22;1.97;;;1.20;;
13743;SDS011;6943;52.368;9.966;2023-04-24T13:45:48;1.00;;;1.00;;
13743;SDS011;6943;52.368;9.966;2023-04-24T13:48:13;1.00;;;0.90;;
13743;SDS011;6943;52.368;9.966;2023-04-24T13:50:42;0.87;;;0.87;;
13743;SDS011;6943;52.368;9.966;2023-04-24T13:53:09;1.30;;;0.80;;
13743;SDS011;6943;52.368;9.966;2023-04-24T13:55:34;0.80;;;0.80;;
13743;SDS011;6943;52.368;9.966;2023-04-24T13:58:00;3.60;;;1.07;;
13743;SDS011;6943;52.368;9.966;2023-04-24T14:00:26;2.23;;;0.90;;
13743;SDS011;6943;52.368;9.966;2023-04-24T14:02:52;1.37;;;0.77;;
13743;SDS011;6943;52.368;9.966;2023-04-24T14:05:17;0.80;;;0.60;;
13743;SDS011;6943;52.368;9.966;2023-04-24T14:07:43;1.47;;;0.70;;
13743;SDS011;6943;52.368;9.966;2023-04-24T14:10:08;1.40;;;0.60;;
13743;SDS011;6943;52.368;9.966;2023-04-24T14:12:35;0.73;;;0.70;;
13743;SDS011;6943;52.368;9.966;2023-04-24T14:15:00;0.40;;;0.40;;
13743;SDS011;6943;52.368;9.966;2023-04-24T14:17:26;0.40;;;0.40;;
13743;SDS011;6943;52.368;9.966;2023-04-24T14:19:52;0.40;;;0.40;;
13743;SDS011;6943;52.368;9.966;2023-04-24T14:22:21;0.53;;;0.53;;
13743;SDS011;6943;52.368;9.966;2023-04-24T14:24:46;0.63;;;0.40;;
13743;SDS011;6943;52.368;9.966;2023-04-24T14:27:11;0.70;;;0.60;;
13743;SDS011;6943;52.368;9.966;2023-04-24T14:29:37;1.03;;;0.87;;
13743;SDS011;6943;52.368;9.966;2023-04-24T14:32:02;0.70;;;0.60;;
13743;SDS011;6943;52.368;9.966;2023-04-24T14:34:28;1.73;;;0.90;;
13743;SDS011;6943;52.368;9.966;2023-04-24T14:36:53;0.87;;;0.77;;
13743;SDS011;6943;52.368;9.966;2023-04-24T14:39:19;1.67;;;0.90;;
13743;SDS011;6943;52.368;9.966;2023-04-24T14:41:45;0.60;;;0.60;;
13743;SDS011;6943;52.368;9.966;2023-04-24T14:44:10;1.07;;;0.97;;
13743;SDS011;6943;52.368;9.966;2023-04-24T14:46:36;2.83;;;1.50;;
13743;SDS011;6943;52.368;9.966;2023-04-24T14:49:01;1.60;;;1.50;;
13743;SDS011;6943;52.368;9.966;2023-04-24T14:51:27;2.90;;;1.70;;
13743;SDS011;6943;52.368;9.966;2023-04-24T14:53:53;1.50;;;1.40;;
13743;SDS011;6943;52.368;9.966;2023-04-24T14:56:18;2.23;;;1.70;;
13743;SDS011;6943;52.368;9.966;2023-04-24T14:58:44;1.83;;;1.33;;
13743;SDS011;6943;52.368;9.966;2023-04-24T15:01:10;2.20;;;1.97;;
13743;SDS011;6943;52.368;9.966;2023-04-24T15:03:35;2.00;;;1.73;;
13743;SDS011;6943;52.368;9.966;2023-04-24T15:06:01;2.10;;;1.80;;
13743;SDS011;6943;52.368;9.966;2023-04-24T15:08:26;3.53;;;1.70;;
13743;SDS011;6943;52.368;9.966;2023-04-24T15:10:52;2.23;;;1.73;;
13743;SDS011;6943;52.368;9.966;2023-04-24T15:13:18;2.57;;;2.00;;